Time,TemperatureF,DewpointF,PressureIn,WindDirection,WindDirectionDegrees,WindSpeedMPH,WindSpeedGustMPH,Humidity,HourlyPrecipIn,Conditions,Clouds,dailyrainin,SolarRadiationWatts/m^2,SoftwareType,DateUTC
2013-03-23 00:03:00,74.0,72.0,-100.00,SE,145,3.0,7.0,93,0.00,,,0.00,0.000000,,2013-03-23 04:03:00,
2013-03-23 00:13:00,74.0,72.0,-100.00,SE,145,3.0,7.0,93,0.00,,,0.00,0.000000,,2013-03-23 04:13:00,
2013-03-23 00:23:00,74.0,72.0,-100.00,SE,145,3.0,7.0,93,0.00,,,0.00,0.000000,,2013-03-23 04:23:00,
2013-03-23 00:32:00,74.0,72.0,-100.00,SE,145,3.0,7.0,93,0.00,,,0.00,0.000000,,2013-03-23 04:32:00,
2013-03-23 01:02:00,74.0,72.0,-100.00,SSE,154,3.0,6.0,94,0.00,,,0.00,0.000000,,2013-03-23 05:02:00,
2013-03-23 01:12:00,74.0,72.0,-100.00,SSE,154,3.0,6.0,94,0.00,,,0.00,0.000000,,2013-03-23 05:12:00,
2013-03-23 01:22:00,74.0,72.0,-100.00,SSE,154,3.0,6.0,94,0.00,,,0.00,0.000000,,2013-03-23 05:22:00,
2013-03-23 01:32:00,74.0,72.0,-100.00,SSE,154,3.0,6.0,94,0.00,,,0.00,0.000000,,2013-03-23 05:32:00,
2013-03-23 02:02:00,74.0,72.0,-100.00,SSE,157,4.0,6.0,95,0.00,,,0.00,0.000000,,2013-03-23 06:02:00,
2013-03-23 02:12:00,74.0,72.0,-100.00,SSE,157,4.0,6.0,95,0.00,,,0.00,0.000000,,2013-03-23 06:12:00,
2013-03-23 02:22:00,74.0,72.0,-100.00,SSE,157,4.0,6.0,95,0.00,,,0.00,0.000000,,2013-03-23 06:22:00,
2013-03-23 02:32:00,74.0,72.0,-100.00,SSE,157,4.0,6.0,95,0.00,,,0.00,0.000000,,2013-03-23 06:32:00,
2013-03-23 03:03:00,74.0,72.0,-100.00,SSE,158,5.0,8.0,95,0.00,,,0.00,0.000000,,2013-03-23 07:03:00,
2013-03-23 03:12:00,74.0,72.0,-100.00,SSE,158,5.0,8.0,95,0.00,,,0.00,0.000000,,2013-03-23 07:12:00,
2013-03-23 03:22:00,74.0,72.0,-100.00,SSE,158,5.0,8.0,95,0.00,,,0.00,0.000000,,2013-03-23 07:22:00,
2013-03-23 03:32:00,74.0,72.0,-100.00,SSE,158,5.0,8.0,95,0.00,,,0.00,0.000000,,2013-03-23 07:32:00,
2013-03-23 04:03:00,74.0,72.0,-100.00,SSE,168,6.0,9.0,95,0.00,,,0.00,0.000000,,2013-03-23 08:03:00,
2013-03-23 04:13:00,74.0,72.0,-100.00,SSE,168,6.0,9.0,95,0.00,,,0.00,0.000000,,2013-03-23 08:13:00,
2013-03-23 04:22:00,74.0,72.0,-100.00,SSE,168,6.0,9.0,95,0.00,,,0.00,0.000000,,2013-03-23 08:22:00,
2013-03-23 04:32:00,74.0,72.0,-100.00,SSE,168,6.0,9.0,95,0.00,,,0.00,0.000000,,2013-03-23 08:32:00,
2013-03-23 05:02:00,75.0,73.0,-100.00,South,183,5.0,9.0,95,0.00,,,0.00,0.000000,,2013-03-23 09:02:00,
2013-03-23 05:12:00,75.0,73.0,-100.00,South,183,5.0,9.0,95,0.00,,,0.00,0.000000,,2013-03-23 09:12:00,
2013-03-23 05:22:00,75.0,73.0,-100.00,South,183,5.0,9.0,95,0.00,,,0.00,0.000000,,2013-03-23 09:22:00,
2013-03-23 05:33:00,75.0,73.0,-100.00,South,183,5.0,9.0,95,0.00,,,0.00,0.000000,,2013-03-23 09:33:00,
2013-03-23 06:03:00,72.0,70.0,-100.00,South,175,2.0,8.0,94,0.00,,,0.00,0.000000,,2013-03-23 10:03:00,
2013-03-23 06:13:00,72.0,70.0,-100.00,South,175,2.0,8.0,94,0.00,,,0.00,0.000000,,2013-03-23 10:13:00,
2013-03-23 06:23:00,72.0,70.0,-100.00,South,175,2.0,8.0,94,0.00,,,0.00,0.000000,,2013-03-23 10:23:00,
2013-03-23 06:34:00,72.0,70.0,-100.00,South,175,2.0,8.0,94,0.00,,,0.00,0.000000,,2013-03-23 10:34:00,
2013-03-23 07:03:00,72.0,71.0,-100.00,South,182,3.0,6.0,96,0.00,,,0.00,0.000000,,2013-03-23 11:03:00,
2013-03-23 07:12:00,72.0,71.0,-100.00,South,182,3.0,6.0,96,0.00,,,0.00,0.000000,,2013-03-23 11:12:00,
2013-03-23 07:22:00,72.0,71.0,-100.00,South,182,3.0,6.0,96,0.00,,,0.00,0.000000,,2013-03-23 11:22:00,
2013-03-23 07:32:00,72.0,71.0,-100.00,South,182,3.0,6.0,96,0.00,,,0.00,0.000000,,2013-03-23 11:32:00,
2013-03-23 08:02:00,74.0,72.0,-100.00,South,173,6.0,10.0,95,0.00,,,0.00,2.000000,,2013-03-23 12:02:00,
2013-03-23 08:13:00,74.0,72.0,-100.00,South,173,6.0,10.0,95,0.00,,,0.00,2.000000,,2013-03-23 12:13:00,
2013-03-23 08:22:00,74.0,72.0,-100.00,South,173,6.0,10.0,95,0.00,,,0.00,2.000000,,2013-03-23 12:22:00,
2013-03-23 08:33:00,74.0,72.0,-100.00,South,173,6.0,10.0,95,0.00,,,0.00,2.000000,,2013-03-23 12:33:00,
2013-03-23 09:03:00,77.0,74.0,-100.00,South,177,8.0,14.0,89,0.00,,,0.00,98.000000,,2013-03-23 13:03:00,
2013-03-23 09:12:00,77.0,74.0,-100.00,South,177,8.0,14.0,89,0.00,,,0.00,98.000000,,2013-03-23 13:12:00,
2013-03-23 09:23:00,77.0,74.0,-100.00,South,177,8.0,14.0,89,0.00,,,0.00,98.000000,,2013-03-23 13:23:00,
2013-03-23 09:33:00,77.0,74.0,-100.00,South,177,8.0,14.0,89,0.00,,,0.00,98.000000,,2013-03-23 13:33:00,
2013-03-23 10:03:00,79.0,72.0,-100.00,South,183,9.0,15.0,79,0.00,,,0.00,294.000000,,2013-03-23 14:03:00,
2013-03-23 10:12:00,79.0,72.0,-100.00,South,183,9.0,15.0,79,0.00,,,0.00,294.000000,,2013-03-23 14:12:00,
2013-03-23 10:23:00,79.0,72.0,-100.00,South,183,9.0,15.0,79,0.00,,,0.00,294.000000,,2013-03-23 14:23:00,
2013-03-23 10:32:00,79.0,72.0,-100.00,South,183,9.0,15.0,79,0.00,,,0.00,294.000000,,2013-03-23 14:32:00,
2013-03-23 11:04:00,81.0,71.0,-100.00,South,176,11.0,19.0,72,0.00,,,0.00,500.000000,,2013-03-23 15:04:00,
2013-03-23 11:13:00,81.0,71.0,-100.00,South,176,11.0,19.0,72,0.00,,,0.00,500.000000,,2013-03-23 15:13:00,
2013-03-23 11:22:00,81.0,71.0,-100.00,South,176,11.0,19.0,72,0.00,,,0.00,500.000000,,2013-03-23 15:22:00,
2013-03-23 11:33:00,81.0,71.0,-100.00,South,176,11.0,19.0,72,0.00,,,0.00,500.000000,,2013-03-23 15:33:00,
2013-03-23 12:03:00,83.0,73.0,-100.00,South,179,12.0,20.0,72,0.00,,,0.00,670.000000,,2013-03-23 16:03:00,
2013-03-23 12:13:00,83.0,73.0,-100.00,South,179,12.0,20.0,72,0.00,,,0.00,670.000000,,2013-03-23 16:13:00,
2013-03-23 12:23:00,83.0,73.0,-100.00,South,179,12.0,20.0,72,0.00,,,0.00,670.000000,,2013-03-23 16:23:00,
2013-03-23 12:33:00,83.0,73.0,-100.00,South,179,12.0,20.0,72,0.00,,,0.00,670.000000,,2013-03-23 16:33:00,
2013-03-23 13:03:00,83.0,68.0,-100.00,South,181,12.0,20.0,61,0.00,,,0.00,793.000000,,2013-03-23 17:03:00,
2013-03-23 13:12:00,83.0,68.0,-100.00,South,181,12.0,20.0,61,0.00,,,0.00,793.000000,,2013-03-23 17:12:00,
2013-03-23 13:23:00,83.0,68.0,-100.00,South,181,12.0,20.0,61,0.00,,,0.00,793.000000,,2013-03-23 17:23:00,
2013-03-23 13:33:00,83.0,68.0,-100.00,South,181,12.0,20.0,61,0.00,,,0.00,793.000000,,2013-03-23 17:33:00,
2013-03-23 14:03:00,84.0,68.0,-100.00,South,178,12.0,19.0,58,0.00,,,0.00,852.000000,,2013-03-23 18:03:00,
2013-03-23 14:12:00,84.0,68.0,-100.00,South,178,12.0,19.0,58,0.00,,,0.00,852.000000,,2013-03-23 18:12:00,
2013-03-23 14:23:00,84.0,68.0,-100.00,South,178,12.0,19.0,58,0.00,,,0.00,852.000000,,2013-03-23 18:23:00,
2013-03-23 14:32:00,84.0,68.0,-100.00,South,178,12.0,19.0,58,0.00,,,0.00,852.000000,,2013-03-23 18:32:00,
2013-03-23 15:03:00,83.0,70.0,-100.00,South,185,11.0,19.0,65,0.00,,,0.00,847.000000,,2013-03-23 19:03:00,
2013-03-23 15:13:00,83.0,70.0,-100.00,South,185,11.0,19.0,65,0.00,,,0.00,847.000000,,2013-03-23 19:13:00,
2013-03-23 15:23:00,83.0,70.0,-100.00,South,185,11.0,19.0,65,0.00,,,0.00,847.000000,,2013-03-23 19:23:00,
2013-03-23 15:32:00,83.0,70.0,-100.00,South,185,11.0,19.0,65,0.00,,,0.00,847.000000,,2013-03-23 19:32:00,
2013-03-23 16:03:00,84.0,68.0,-100.00,South,175,12.0,19.0,59,0.00,,,0.00,776.000000,,2013-03-23 20:03:00,
2013-03-23 16:13:00,84.0,68.0,-100.00,South,175,12.0,19.0,59,0.00,,,0.00,776.000000,,2013-03-23 20:13:00,
2013-03-23 16:23:00,84.0,68.0,-100.00,South,175,12.0,19.0,59,0.00,,,0.00,776.000000,,2013-03-23 20:23:00,
2013-03-23 16:32:00,84.0,68.0,-100.00,South,175,12.0,19.0,59,0.00,,,0.00,776.000000,,2013-03-23 20:32:00,
2013-03-23 17:03:00,86.0,67.0,-100.00,South,179,8.0,16.0,53,0.00,,,0.00,638.000000,,2013-03-23 21:03:00,
2013-03-23 17:12:00,86.0,67.0,-100.00,South,179,8.0,16.0,53,0.00,,,0.00,638.000000,,2013-03-23 21:12:00,
2013-03-23 17:22:00,86.0,67.0,-100.00,South,179,8.0,16.0,53,0.00,,,0.00,638.000000,,2013-03-23 21:22:00,
2013-03-23 17:33:00,86.0,67.0,-100.00,South,179,8.0,16.0,53,0.00,,,0.00,638.000000,,2013-03-23 21:33:00,
2013-03-23 18:03:00,86.0,65.0,-100.00,SSW,193,6.0,14.0,50,0.00,,,0.00,455.000000,,2013-03-23 22:03:00,
2013-03-23 18:13:00,86.0,65.0,-100.00,SSW,193,6.0,14.0,50,0.00,,,0.00,455.000000,,2013-03-23 22:13:00,
2013-03-23 18:23:00,86.0,65.0,-100.00,SSW,193,6.0,14.0,50,0.00,,,0.00,455.000000,,2013-03-23 22:23:00,
2013-03-23 18:33:00,86.0,65.0,-100.00,SSW,193,6.0,14.0,50,0.00,,,0.00,455.000000,,2013-03-23 22:33:00,
2013-03-23 19:03:00,83.0,68.0,-100.00,SSE,149,5.0,9.0,60,0.00,,,0.00,249.000000,,2013-03-23 23:03:00,
2013-03-23 19:13:00,83.0,68.0,-100.00,SSE,149,5.0,9.0,60,0.00,,,0.00,249.000000,,2013-03-23 23:13:00,
2013-03-23 19:23:00,83.0,68.0,-100.00,SSE,149,5.0,9.0,60,0.00,,,0.00,249.000000,,2013-03-23 23:23:00,
2013-03-23 19:33:00,83.0,68.0,-100.00,SSE,149,5.0,9.0,60,0.00,,,0.00,249.000000,,2013-03-23 23:33:00,
2013-03-23 20:02:00,78.0,69.0,-100.00,SSE,151,3.0,9.0,74,0.00,,,0.00,61.000000,,2013-03-24 00:02:00,
2013-03-23 20:13:00,78.0,69.0,-100.00,SSE,151,3.0,9.0,74,0.00,,,0.00,61.000000,,2013-03-24 00:13:00,
2013-03-23 20:23:00,78.0,69.0,-100.00,SSE,151,3.0,9.0,74,0.00,,,0.00,61.000000,,2013-03-24 00:23:00,
2013-03-23 20:33:00,78.0,69.0,-100.00,SSE,151,3.0,9.0,74,0.00,,,0.00,61.000000,,2013-03-24 00:33:00,
2013-03-23 21:02:00,76.0,71.0,-100.00,SE,145,2.0,4.0,85,0.00,,,0.00,1.000000,,2013-03-24 01:02:00,
2013-03-23 21:13:00,76.0,71.0,-100.00,SE,145,2.0,4.0,85,0.00,,,0.00,1.000000,,2013-03-24 01:13:00,
2013-03-23 21:22:00,76.0,71.0,-100.00,SE,145,2.0,4.0,85,0.00,,,0.00,1.000000,,2013-03-24 01:22:00,
2013-03-23 21:33:00,76.0,71.0,-100.00,SE,145,2.0,4.0,85,0.00,,,0.00,1.000000,,2013-03-24 01:33:00,
2013-03-23 22:03:00,75.0,72.0,-100.00,SE,132,3.0,6.0,89,0.00,,,0.00,0.000000,,2013-03-24 02:03:00,
2013-03-23 22:12:00,75.0,72.0,-100.00,SE,132,3.0,6.0,89,0.00,,,0.00,0.000000,,2013-03-24 02:12:00,
2013-03-23 22:22:00,75.0,72.0,-100.00,SE,132,3.0,6.0,89,0.00,,,0.00,0.000000,,2013-03-24 02:22:00,
2013-03-23 22:32:00,75.0,72.0,-100.00,SE,132,3.0,6.0,89,0.00,,,0.00,0.000000,,2013-03-24 02:32:00,
2013-03-23 23:03:00,75.0,72.0,-100.00,SE,126,3.0,5.0,91,0.00,,,0.00,0.000000,,2013-03-24 03:03:00,
2013-03-23 23:13:00,75.0,72.0,-100.00,SE,126,3.0,5.0,91,0.00,,,0.00,0.000000,,2013-03-24 03:13:00,
2013-03-23 23:23:00,75.0,72.0,-100.00,SE,126,3.0,5.0,91,0.00,,,0.00,0.000000,,2013-03-24 03:23:00,
2013-03-23 23:33:00,75.0,72.0,-100.00,SE,126,3.0,5.0,91,0.00,,,0.00,0.000000,,2013-03-24 03:33:00,